Time;durP1;ratioP1;P1;durP2;ratioP2;P2;SDS_P1;SDS_P2;PMS_P1;PMS_P2;Temp;Humidity;BMP_temperature;BMP_pressure;BME280_temperature;BME280_humidity;BME280_pressure;Samples;Min_cycle;Max_cycle;Signal;HPM_P1;HPM_P2
2022/05/26 00:02:12;;;;;;;2.33;0.97;;;;;;;14.75;67.62;100274.88;5116087;28;20034;-79
2022/05/26 00:04:41;;;;;;;1.83;0.70;;;;;;;14.70;68.09;100275.56;5116177;28;20249;-79
2022/05/26 00:07:07;;;;;;;2.22;0.80;;;;;;;14.77;67.80;100273.59;5116804;28;20030;-78
2022/05/26 00:09:33;;;;;;;1.80;0.90;;;;;;;14.73;67.97;100275.13;5115909;28;20027;-79
2022/05/26 00:11:58;;;;;;;2.50;1.00;;;;;;;14.76;68.06;100276.53;5097617;28;20068;-80
2022/05/26 00:14:23;;;;;;;;;;;;;;;14.68;68.50;100268.75;5117138;28;20050;-78
2022/05/26 00:16:49;;;;;;;2.33;1.02;;;;;;;14.64;68.78;100265.69;5097348;28;19947;-79
2022/05/26 00:19:18;;;;;;;1.77;0.80;;;;;;;14.62;68.59;100270.53;5116636;28;20422;-77
2022/05/26 00:21:46;;;;;;;2.78;0.73;;;;;;;14.61;68.77;100279.72;5120999;28;20370;-80
2022/05/26 00:24:12;;;;;;;2.20;0.75;;;;;;;14.63;68.77;100274.88;5102907;28;20091;-80
2022/05/26 00:26:37;;;;;;;1.85;0.80;;;;;;;14.61;68.52;100274.28;5121774;28;20043;-79
2022/05/26 00:29:03;;;;;;;1.83;0.80;;;;;;;14.59;69.12;100269.09;5121908;28;20032;-80
2022/05/26 00:31:34;;;;;;;3.03;1.05;;;;;;;14.54;69.36;100274.38;5121955;28;20054;-79
2022/05/26 00:33:59;;;;;;;1.75;0.80;;;;;;;14.66;68.74;100276.31;5121392;28;20071;-78
2022/05/26 00:36:43;;;;;;;2.33;1.10;;;;;;;14.66;69.06;100279.03;5121058;28;20020;-81
2022/05/26 00:39:09;;;;;;;2.88;1.05;;;;;;;14.62;68.77;100278.66;5121394;28;20261;-80
2022/05/26 00:41:39;;;;;;;2.75;0.77;;;;;;;14.54;69.06;100270.84;5121520;28;20027;-79
2022/05/26 00:44:06;;;;;;;1.95;0.90;;;;;;;14.56;69.05;100266.84;5120496;28;20462;-79
2022/05/26 00:46:43;;;;;;;4.82;1.10;;;;;;;14.62;68.92;100275.94;5121613;28;20056;-78
2022/05/26 00:49:16;;;;;;;3.90;1.23;;;;;;;14.61;69.31;100276.19;5103597;28;20049;-79
2022/05/26 00:51:42;;;;;;;2.97;1.13;;;;;;;14.54;69.23;100274.38;5121356;28;20031;-79
2022/05/26 00:54:13;;;;;;;1.25;0.80;;;;;;;14.46;69.77;100273.94;5122357;28;20055;-79
2022/05/26 00:56:48;;;;;;;2.03;1.02;;;;;;;14.48;69.91;100280.78;5102936;28;20120;-79
2022/05/26 00:59:30;;;;;;;2.00;0.80;;;;;;;14.52;69.83;100267.53;5121341;28;20099;-79
2022/05/26 01:01:58;;;;;;;1.60;0.70;;;;;;;14.63;69.53;100277.59;5120252;28;20057;-78
2022/05/26 01:04:27;;;;;;;3.47;1.02;;;;;;;14.60;69.26;100275.34;5119880;28;20026;-79
2022/05/26 01:07:05;;;;;;;2.17;0.82;;;;;;;14.60;69.27;100275.34;5102909;28;20038;-78
2022/05/26 01:09:31;;;;;;;1.95;0.70;;;;;;;14.57;69.89;100273.09;5120704;28;20038;-80
2022/05/26 01:11:59;;;;;;;2.03;0.70;;;;;;;14.58;69.52;100275.56;5120387;28;20020;-80
2022/05/26 01:14:29;;;;;;;1.85;0.80;;;;;;;14.62;69.37;100269.69;5121566;28;20036;-79
2022/05/26 01:17:04;;;;;;;1.85;1.00;;;;;;;14.55;69.79;100275.22;5121049;28;20084;-80
2022/05/26 01:20:03;;;;;;;1.80;0.70;;;;;;;14.57;69.89;100271.22;5120125;28;20024;-79
2022/05/26 01:23:01;;;;;;;2.10;0.70;;;;;;;14.46;70.63;100277.47;5120377;28;20110;-79
2022/05/26 01:25:35;;;;;;;3.50;0.90;;;;;;;14.55;70.48;100280.63;5120487;28;20034;-78
2022/05/26 01:28:33;;;;;;;5.60;1.70;;;;;;;14.51;70.66;100279.47;5120000;28;20470;-80
2022/05/26 01:30:58;;;;;;;3.88;1.50;;;;;;;14.49;71.22;100268.03;5100018;28;20036;-78
2022/05/26 01:33:32;;;;;;;;;;;;;;;14.49;71.19;100277.00;5119730;28;20069;-78
2022/05/26 01:36:37;;;;;;;2.53;1.05;;;;;;;14.50;71.81;100267.81;5120379;28;20014;-79
2022/05/26 01:39:37;;;;;;;3.20;1.10;;;;;;;14.61;71.64;100277.00;5101789;28;20119;-77
2022/05/26 01:42:23;;;;;;;2.92;1.40;;;;;;;14.47;72.15;100278.28;5119956;28;20079;-79
2022/05/26 01:44:55;;;;;;;3.28;1.20;;;;;;;14.47;72.58;100278.28;5120187;28;20081;-79
2022/05/26 01:47:36;;;;;;;3.97;1.00;;;;;;;14.45;72.55;100269.56;5101602;28;20039;-80
2022/05/26 01:50:06;;;;;;;3.63;0.90;;;;;;;14.46;72.41;100282.06;5120077;28;20054;-79
2022/05/26 01:52:59;;;;;;;1.20;0.70;;;;;;;14.45;72.96;100280.41;5121077;28;20058;-79
2022/05/26 01:55:39;;;;;;;1.98;0.80;;;;;;;14.51;72.34;100274.06;5120562;28;20032;-78
2022/05/26 01:58:11;;;;;;;2.33;0.90;;;;;;;14.55;72.28;100288.78;5120528;28;20050;-79
2022/05/26 02:00:37;;;;;;;1.33;0.57;;;;;;;14.52;72.02;100289.25;5120341;28;20027;-79
2022/05/26 02:03:16;;;;;;;1.88;0.75;;;;;;;14.47;72.57;100291.84;5101850;28;20042;-78
2022/05/26 02:05:54;;;;;;;2.65;0.85;;;;;;;14.45;72.72;100292.06;5103297;28;20382;-80
2022/05/26 02:08:30;;;;;;;2.22;0.77;;;;;;;14.43;72.99;100285.22;5121459;28;20032;-79
2022/05/26 02:11:08;;;;;;;2.10;0.70;;;;;;;14.49;nan;100287.84;5123347;28;20110;-78
2022/05/26 02:13:40;;;;;;;2.28;0.80;;;;;;;14.49;72.90;100300.56;5101664;28;20138;-79
2022/05/26 02:16:22;;;;;;;2.33;0.98;;;;;;;14.42;72.99;100297.13;5119507;28;20031;-79
2022/05/26 02:18:54;;;;;;;1.77;0.70;;;;;;;14.40;73.46;100297.38;5120826;28;20118;-79
2022/05/26 02:21:39;;;;;;;2.42;0.80;;;;;;;14.40;73.29;100300.06;5121490;28;20046;-78
2022/05/26 02:24:16;;;;;;;2.08;0.88;;;;;;;14.31;73.85;100293.31;5121406;28;20034;-79
2022/05/26 02:26:41;;;;;;;3.55;0.90;;;;;;;14.29;73.77;100303.56;5121759;28;20033;-77
2022/05/26 02:31:52;;;;;;;2.90;0.82;;;;;;;14.31;74.31;100297.91;5118244;28;20108;-78
2022/05/26 02:34:20;;;;;;;3.45;0.85;;;;;;;14.29;74.58;100303.56;5118501;28;20060;-78
2022/05/26 02:37:07;;;;;;;2.90;1.08;;;;;;;14.29;74.28;100305.44;5101114;28;20099;-78
2022/05/26 02:39:32;;;;;;;3.40;0.70;;;;;;;14.27;74.84;100304.84;5118374;28;20081;-78
2022/05/26 02:42:01;;;;;;;3.07;1.13;;;;;;;14.22;74.89;100305.53;5115888;28;20027;-79
2022/05/26 02:44:29;;;;;;;2.97;1.30;;;;;;;14.23;74.78;100301.78;5116005;28;20438;-78
2022/05/26 02:47:02;;;;;;;1.48;0.77;;;;;;;14.31;74.70;100314.19;5117878;28;20047;-78
2022/05/26 02:49:33;;;;;;;6.00;1.25;;;;;;;14.24;75.33;100312.38;5117861;28;20059;-76
2022/05/26 02:52:10;;;;;;;2.45;0.90;;;;;;;14.28;75.01;100312.75;5115749;28;20382;-77
2022/05/26 02:54:54;;;;;;;2.58;0.95;;;;;;;14.23;75.44;100315.31;5098955;28;20501;-77
2022/05/26 02:57:53;;;;;;;2.88;1.05;;;;;;;14.24;75.37;100320.50;5116404;28;20063;-78
2022/05/26 03:00:48;;;;;;;2.75;1.10;;;;;;;14.25;75.61;100322.16;5116392;28;20032;-78
2022/05/26 03:03:34;;;;;;;3.72;1.02;;;;;;;14.24;75.78;100338.66;5117732;28;20035;-79
2022/05/26 03:06:09;;;;;;;2.30;0.98;;;;;;;14.22;76.12;100325.34;5117353;28;20032;-77
2022/05/26 03:08:39;;;;;;;3.72;1.00;;;;;;;14.11;76.81;100336.97;5099278;28;20092;-79
2022/05/26 03:11:13;;;;;;;1.75;0.77;;;;;;;14.11;76.88;100339.69;5118006;28;20497;-79
2022/05/26 03:13:42;;;;;;;3.25;0.95;;;;;;;14.09;77.12;100322.00;5117495;28;20027;-78
2022/05/26 03:16:07;;;;;;;2.47;1.10;;;;;;;14.18;76.92;100326.84;5116845;28;20387;-79
2022/05/26 03:18:33;;;;;;;2.05;0.90;;;;;;;14.09;77.11;100325.53;5117403;28;20023;-78
2022/05/26 03:21:03;;;;;;;2.08;0.90;;;;;;;14.05;77.45;100324.34;5117393;28;20470;-78
2022/05/26 03:23:29;;;;;;;1.85;0.77;;;;;;;14.11;77.12;100319.88;5117121;28;20032;-78
2022/05/26 03:25:56;;;;;;;2.15;1.00;;;;;;;14.16;76.97;100328.13;5118109;28;20035;-79
2022/05/26 03:28:22;;;;;;;4.57;1.33;;;;;;;14.05;77.92;100331.63;5118032;28;20063;-79
2022/05/26 03:30:48;;;;;;;2.40;1.20;;;;;;;14.07;78.47;100324.94;5118413;28;20484;-79
2022/05/26 03:33:16;;;;;;;2.40;0.90;;;;;;;14.01;78.94;100333.13;5118931;28;20027;-80
2022/05/26 03:41:22;;;;;;;3.13;1.20;;;;;;;13.92;79.71;100337.25;5116953;28;20038;-78
2022/05/26 03:44:00;;;;;;;2.90;1.10;;;;;;;13.86;81.23;100339.78;5117006;28;20035;-78
2022/05/26 03:46:30;;;;;;;4.20;1.20;;;;;;;13.68;83.80;100352.53;5098848;28;20377;-79
2022/05/26 03:48:55;;;;;;;3.40;1.25;;;;;;;13.41;85.94;100350.16;5116142;28;20105;-79
2022/05/26 03:51:26;;;;;;;4.73;1.23;;;;;;;13.26;87.03;100343.41;5117006;28;20085;-79
2022/05/26 03:53:52;;;;;;;4.47;1.38;;;;;;;13.09;89.53;100352.09;5119480;28;20262;-79
2022/05/26 03:56:17;;;;;;;4.47;1.50;;;;;;;12.96;90.41;100363.03;5120648;28;20031;-78
2022/05/26 03:58:42;;;;;;;3.70;1.60;;;;;;;12.87;90.97;100358.97;5120918;28;20462;-78
2022/05/26 04:01:08;;;;;;;4.73;1.70;;;;;;;12.84;92.04;100371.06;5119584;28;20279;-80
2022/05/26 04:03:36;;;;;;;4.53;2.00;;;;;;;12.84;92.45;100360.25;5103508;28;20068;-78
2022/05/26 04:06:08;;;;;;;2.97;1.35;;;;;;;12.90;92.59;100360.41;5121670;28;20087;-79
2022/05/26 04:08:39;;;;;;;6.05;1.80;;;;;;;12.88;92.90;100374.16;5122041;28;20042;-79
2022/05/26 04:11:04;;;;;;;4.95;1.52;;;;;;;12.84;92.90;100381.03;5122677;28;20028;-78
2022/05/26 04:13:30;;;;;;;5.05;1.95;;;;;;;12.86;93.53;100379.78;5103518;28;20099;-77
2022/05/26 04:15:56;;;;;;;3.83;1.48;;;;;;;12.88;94.08;100387.69;5122621;28;20027;-78
2022/05/26 04:18:21;;;;;;;3.33;1.70;;;;;;;12.81;93.95;100384.19;5120677;28;20031;-77
2022/05/26 04:20:46;;;;;;;4.57;1.40;;;;;;;12.73;94.46;100387.97;5118790;28;20496;-78
2022/05/26 04:23:11;;;;;;;4.90;1.90;;;;;;;12.75;94.72;100387.75;5118527;28;20262;-78
2022/05/26 04:25:37;;;;;;;4.60;1.60;;;;;;;12.73;95.52;100389.84;5100243;28;20031;-78
2022/05/26 04:28:02;;;;;;;3.83;1.77;;;;;;;12.69;96.27;100391.38;5118842;28;20032;-80
2022/05/26 04:30:28;;;;;;;4.25;1.95;;;;;;;12.66;96.38;100398.03;5117670;28;20257;-77
2022/05/26 04:32:53;;;;;;;4.77;2.00;;;;;;;12.65;96.27;100399.06;5117197;28;20042;-77
2022/05/26 04:35:19;;;;;;;5.95;2.15;;;;;;;12.65;96.97;100395.53;5117016;28;20281;-77
2022/05/26 04:37:45;;;;;;;4.78;2.20;;;;;;;12.60;97.76;100400.75;5116925;28;20458;-77
2022/05/26 04:40:11;;;;;;;6.25;2.50;;;;;;;12.62;97.75;100398.69;5116909;28;20032;-76
2022/05/26 04:42:38;;;;;;;9.10;2.95;;;;;;;12.58;97.77;100408.25;5116680;28;20034;-76
2022/05/26 04:45:05;;;;;;;8.90;3.42;;;;;;;12.60;98.30;100407.00;5116670;28;20027;-76
2022/05/26 04:47:31;;;;;;;7.82;3.05;;;;;;;12.55;98.25;100408.69;5116637;28;20039;-77
2022/05/26 04:49:56;;;;;;;7.70;3.13;;;;;;;12.56;98.38;100411.19;5116232;28;20160;-76
2022/05/26 04:52:23;;;;;;;6.97;3.58;;;;;;;12.58;98.73;100411.78;5116824;28;20246;-77
2022/05/26 04:54:49;;;;;;;9.18;4.03;;;;;;;12.58;98.47;100413.66;5117197;28;20046;-77
2022/05/26 04:57:18;;;;;;;7.63;3.38;;;;;;;12.55;98.90;100412.22;5116862;28;20027;-77
2022/05/26 04:59:44;;;;;;;7.45;3.95;;;;;;;12.56;98.77;100410.34;5098519;28;20484;-77
2022/05/26 05:02:11;;;;;;;10.88;5.22;;;;;;;12.55;98.84;100414.94;5116737;28;20103;-77
2022/05/26 05:04:38;;;;;;;7.50;3.85;;;;;;;12.52;98.94;100416.22;5116557;28;20024;-76
2022/05/26 05:07:04;;;;;;;9.65;4.32;;;;;;;12.52;99.36;100418.91;5116551;28;20088;-76
2022/05/26 05:09:29;;;;;;;10.65;4.35;;;;;;;12.57;99.46;100423.66;5116448;28;20355;-76
2022/05/26 05:11:54;;;;;;;11.67;4.57;;;;;;;12.57;99.25;100430.94;5116569;28;20042;-76
2022/05/26 05:14:19;;;;;;;7.83;3.90;;;;;;;12.68;99.59;100417.56;5116691;28;20046;-76
2022/05/26 05:16:45;;;;;;;7.70;3.80;;;;;;;12.62;99.21;100426.53;5116005;28;20265;-77
2022/05/26 05:19:17;;;;;;;9.65;4.00;;;;;;;12.61;99.37;100432.16;5116012;28;20368;-76
2022/05/26 05:21:56;;;;;;;9.00;4.00;;;;;;;12.62;99.62;100439.22;5116283;28;20036;-76
2022/05/26 05:24:34;;;;;;;9.10;3.88;;;;;;;12.65;99.25;100436.91;5116288;28;20023;-78
2022/05/26 05:27:16;;;;;;;9.60;3.47;;;;;;;12.72;99.16;100442.28;5097861;28;20032;-77
2022/05/26 05:29:43;;;;;;;8.77;3.53;;;;;;;12.78;98.80;100449.50;5115951;28;20024;-77
2022/05/26 05:32:18;;;;;;;9.43;3.67;;;;;;;12.78;98.86;100446.81;5116292;28;20038;-76
2022/05/26 05:34:49;;;;;;;8.60;3.67;;;;;;;12.81;98.81;100449.09;5116423;28;20044;-76
2022/05/26 05:37:14;;;;;;;7.25;3.10;;;;;;;12.82;98.84;100450.75;5115544;28;20035;-77
2022/05/26 05:39:40;;;;;;;10.85;3.70;;;;;;;12.86;98.23;100460.06;5115603;28;20460;-76
2022/05/26 05:42:06;;;;;;;8.02;4.07;;;;;;;12.89;98.05;100461.53;5116117;28;20035;-76
2022/05/26 05:44:31;;;;;;;;;;;;;;;12.91;98.09;100457.53;5117678;28;20528;-76
2022/05/26 05:47:01;;;;;;;9.02;3.03;;;;;;;12.96;98.55;100465.81;5116218;28;19916;-77
2022/05/26 05:49:29;;;;;;;10.00;4.18;;;;;;;13.04;97.69;100465.56;5116886;28;20027;-78
2022/05/26 05:51:56;;;;;;;9.05;3.47;;;;;;;13.03;97.42;100463.91;5116258;28;20482;-76
2022/05/26 05:54:22;;;;;;;8.80;3.67;;;;;;;13.08;97.33;100479.44;5117392;28;20027;-77
2022/05/26 05:56:48;;;;;;;8.57;4.07;;;;;;;13.16;96.99;100473.81;5129665;28;20043;-78
2022/05/26 05:59:13;;;;;;;;;;;;;;;13.12;96.13;100476.09;5128268;28;20036;-78
2022/05/26 06:01:39;;;;;;;8.52;2.90;;;;;;;13.12;96.47;100477.97;5119774;28;19960;-78
2022/05/26 06:04:05;;;;;;;8.82;3.50;;;;;;;13.23;97.16;100480.00;5120702;28;20077;-77
2022/05/26 06:06:36;;;;;;;7.40;3.85;;;;;;;13.20;96.23;100481.28;5115555;28;20043;-76
2022/05/26 06:09:01;;;;;;;10.07;3.80;;;;;;;13.22;96.13;100491.06;5115867;28;20031;-77
2022/05/26 06:11:26;;;;;;;9.43;3.43;;;;;;;13.28;96.03;100488.28;5115714;28;20055;-77
2022/05/26 06:13:52;;;;;;;9.13;4.50;;;;;;;13.26;94.70;100484.94;5097323;28;20031;-77
2022/05/26 06:16:17;;;;;;;11.13;4.13;;;;;;;13.28;95.02;100490.97;5115175;28;20260;-77
2022/05/26 06:18:42;;;;;;;13.10;3.80;;;;;;;13.24;95.42;100488.97;5097791;28;20027;-77
2022/05/26 06:21:07;;;;;;;7.77;4.00;;;;;;;13.25;95.36;100496.84;5116578;28;20350;-77
2022/05/26 06:23:33;;;;;;;8.98;4.55;;;;;;;13.33;94.64;100491.16;5116561;28;20380;-78
2022/05/26 06:25:58;;;;;;;9.10;4.00;;;;;;;13.34;93.98;100500.09;5125192;28;20047;-80
2022/05/26 06:31:09;;;;;;;10.25;4.05;;;;;;;13.38;93.96;100502.16;5130660;28;20517;-78
2022/05/26 06:39:07;;;;;;;10.18;4.38;;;;;;;13.53;93.60;100502.63;5118022;28;20073;-79
2022/05/26 06:44:18;;;;;;;8.43;3.83;;;;;;;13.59;92.67;100514.47;5119027;28;20455;-79
2022/05/26 06:46:44;;;;;;;8.70;5.05;;;;;;;13.61;92.65;100519.66;5118147;28;20028;-80
2022/05/26 06:49:09;;;;;;;11.35;4.05;;;;;;;13.67;92.44;100516.88;5118125;28;20114;-79
2022/05/26 06:51:36;;;;;;;;;;;;;;;13.76;92.11;100518.25;5118313;28;20038;-79
2022/05/26 06:54:03;;;;;;;9.77;4.10;;;;;;;13.78;92.01;100527.00;5116658;28;20014;-79
2022/05/26 06:56:29;;;;;;;9.23;4.13;;;;;;;13.85;91.27;100525.03;5118669;28;20462;-79
2022/05/26 06:58:54;;;;;;;12.57;4.32;;;;;;;13.83;90.81;100531.72;5118293;28;20087;-79
2022/05/26 07:01:19;;;;;;;;;;;;;;;13.84;90.24;100536.09;5119267;28;20035;-81
2022/05/26 07:03:45;;;;;;;10.27;4.33;;;;;;;13.85;89.41;100546.69;5119208;28;20318;-79
2022/05/26 07:06:14;;;;;;;;;;;;;;;13.96;89.24;100539.72;5120295;28;20036;-78
2022/05/26 07:08:48;;;;;;;10.80;4.40;;;;;;;14.04;88.61;100544.84;5100980;28;19915;-79
2022/05/26 07:11:25;;;;;;;15.38;6.00;;;;;;;14.11;87.19;100548.31;5119383;28;20562;-80
2022/05/26 07:13:50;;;;;;;;;;;;;;;14.31;86.32;100541.84;5120355;28;20072;-80
2022/05/26 07:16:52;;;;;;;11.18;4.57;;;;;;;14.46;84.68;100545.03;5101528;28;20346;-78
2022/05/26 07:19:12;;;;;;;10.18;4.00;;;;;;;14.70;83.03;100544.06;5116225;28;20031;-79
2022/05/26 07:21:49;;;;;;;;;;;;;;;;;;;;;
2022/05/26 07:24:20;;;;;;;10.80;3.95;;;;;;;14.66;84.32;100544.78;5117860;28;20131;-79
2022/05/26 07:29:38;;;;;;;12.30;4.60;;;;;;;14.95;80.88;100549.38;5119042;28;20054;-79
2022/05/26 07:34:41;;;;;;;8.70;3.95;;;;;;;15.27;78.63;100548.06;5059565;28;20049;-78
2022/05/26 07:42:38;;;;;;;10.30;3.80;;;;;;;15.32;78.07;100554.69;5063535;28;20039;-81
2022/05/26 07:45:07;;;;;;;;;;;;;;;15.27;78.49;100555.38;5061054;28;20115;-79
2022/05/26 07:47:32;;;;;;;9.20;3.90;;;;;;;15.22;77.32;100557.97;5043551;28;19948;-80
2022/05/26 07:49:58;;;;;;;8.95;4.40;;;;;;;15.21;76.56;100557.16;5061701;28;20040;-79
2022/05/26 07:52:23;;;;;;;;;;;;;;;15.28;76.88;100565.19;5062155;28;20029;-80
2022/05/26 07:54:48;;;;;;;11.00;3.93;;;;;;;15.62;76.82;100569.88;5061262;28;20342;-81
2022/05/26 07:57:25;;;;;;;;;;;;;;;15.66;76.62;100581.09;5043303;28;20497;-79
2022/05/26 07:59:51;;;;;;;7.93;4.13;;;;;;;15.66;76.22;100575.66;5059606;28;20260;-78
2022/05/26 08:02:17;;;;;;;;;;;;;;;15.77;76.32;100571.31;5060164;28;20021;-78
2022/05/26 08:04:43;;;;;;;10.20;4.25;;;;;;;15.68;75.65;100578.97;5059779;28;20440;-79
2022/05/26 08:07:08;;;;;;;8.13;4.10;;;;;;;15.84;74.30;100575.56;5059957;28;20032;-79
2022/05/26 08:09:37;;;;;;;;;;;;;;;15.76;74.63;100575.94;5059987;28;20090;-79
2022/05/26 08:12:05;;;;;;;7.75;4.03;;;;;;;15.96;74.14;100581.81;5059260;28;19919;-79
2022/05/26 08:14:30;;;;;;;9.23;4.18;;;;;;;16.11;74.38;100584.09;5060150;28;20032;-79
2022/05/26 08:16:55;;;;;;;9.17;4.17;;;;;;;16.31;74.78;100598.13;5061497;28;20040;-79
2022/05/26 08:19:21;;;;;;;;;;;;;;;16.44;73.99;100596.22;5061191;28;20291;-80
2022/05/26 08:21:48;;;;;;;10.23;4.50;;;;;;;16.45;73.05;100587.84;5061161;28;19913;-79
2022/05/26 08:24:13;;;;;;;9.10;4.90;;;;;;;16.13;73.99;100598.25;5060343;28;20029;-79
2022/05/26 08:26:38;;;;;;;;;;;;;;;16.19;72.27;100599.19;5060467;28;20036;-78
2022/05/26 08:29:04;;;;;;;6.63;2.90;;;;;;;16.25;70.62;100593.66;5058998;28;20389;-78
2022/05/26 08:31:29;;;;;;;;;;;;;;;15.93;71.94;100597.81;5059329;28;20036;-78
2022/05/26 08:33:54;;;;;;;5.83;3.03;;;;;;;16.07;71.52;100604.66;5074504;28;20126;-80
2022/05/26 08:36:21;;;;;;;;;;;;;;;16.11;71.03;100605.84;5080818;28;20274;-79
2022/05/26 08:38:47;;;;;;;8.30;3.88;;;;;;;16.03;71.49;100614.34;5078858;28;19954;-78
2022/05/26 08:41:28;;;;;;;6.18;3.33;;;;;;;16.16;70.58;100619.53;5078563;28;20036;-78
2022/05/26 08:44:00;;;;;;;7.55;3.20;;;;;;;16.39;69.89;100613.25;5077552;28;20050;-79
2022/05/26 08:46:37;;;;;;;8.18;3.28;;;;;;;16.36;69.42;100619.16;5059114;28;20033;-77
2022/05/26 08:49:14;;;;;;;5.53;3.10;;;;;;;16.30;70.53;100615.50;5076787;28;20058;-77
2022/05/26 08:51:58;;;;;;;7.35;3.00;;;;;;;16.28;69.76;100627.69;5077353;28;20024;-78
2022/05/26 08:54:50;;;;;;;5.75;3.20;;;;;;;16.41;68.86;100626.63;5078607;28;20036;-80
2022/05/26 08:57:23;;;;;;;7.47;3.10;;;;;;;16.50;68.56;100627.88;5076053;28;20066;-77
2022/05/26 08:59:48;;;;;;;7.53;3.35;;;;;;;16.74;66.86;100626.00;5075639;28;20428;-78
2022/05/26 09:02:23;;;;;;;;;;;;;;;16.99;67.25;100627.34;5059796;28;20062;-78
2022/05/26 09:04:48;;;;;;;5.85;3.33;;;;;;;16.99;66.42;100613.75;5080146;28;19908;-80
2022/05/26 09:12:58;;;;;;;;;;;;;;;17.27;64.65;100620.25;5077237;28;20127;-77
2022/05/26 09:15:26;;;;;;;5.07;2.70;;;;;;;17.33;65.13;100624.72;5076380;28;19916;-79
2022/05/26 09:17:51;;;;;;;7.05;3.30;;;;;;;17.42;64.18;100625.13;5060506;28;20451;-79
2022/05/26 09:20:30;;;;;;;;;;;;;;;17.35;65.14;100636.22;5080150;28;20025;-77
2022/05/26 09:23:27;;;;;;;7.40;2.67;;;;;;;17.41;64.73;100637.09;5079125;28;19919;-79
2022/05/26 09:26:01;;;;;;;8.02;2.88;;;;;;;17.40;65.18;100644.44;5078786;28;20078;-79
2022/05/26 09:28:46;;;;;;;7.55;3.13;;;;;;;17.40;65.80;100644.44;5079269;28;20092;-79
2022/05/26 09:31:22;;;;;;;5.72;2.63;;;;;;;17.63;65.10;100647.06;5079505;28;20078;-79
2022/05/26 09:34:01;;;;;;;7.05;2.38;;;;;;;17.79;62.21;100636.44;5080440;28;20116;-78
2022/05/26 09:36:36;;;;;;;5.63;2.65;;;;;;;17.76;61.85;100645.09;5080381;28;20036;-78
2022/05/26 09:39:02;;;;;;;5.70;2.72;;;;;;;17.55;62.05;100642.03;5080531;28;20060;-80
2022/05/26 09:41:27;;;;;;;5.50;2.85;;;;;;;17.56;61.90;100640.94;5082861;28;20099;-78
2022/05/26 09:43:59;;;;;;;;;;;;;;;17.50;61.91;100652.00;5081478;28;20078;-76
2022/05/26 09:46:26;;;;;;;6.88;2.40;;;;;;;17.55;61.90;100652.09;5079463;28;19993;-76
2022/05/26 09:48:59;;;;;;;4.95;2.42;;;;;;;17.29;63.21;100654.34;5080472;28;20070;-79
2022/05/26 09:51:41;;;;;;;6.53;2.55;;;;;;;17.33;63.07;100657.41;5079544;28;20021;-79
2022/05/26 09:54:25;;;;;;;6.43;2.53;;;;;;;17.26;63.45;100646.66;5082485;28;20074;-78
2022/05/26 09:56:51;;;;;;;6.25;2.72;;;;;;;17.51;62.78;100662.66;5078984;28;20020;-78
2022/05/26 09:59:30;;;;;;;;;;;;;;;17.47;63.16;100653.31;5077692;28;20033;-76
2022/05/26 10:02:10;;;;;;;10.43;3.28;;;;;;;17.66;62.42;100662.13;5076995;28;20406;-77
2022/05/26 10:04:51;;;;;;;9.73;2.63;;;;;;;17.93;62.14;100668.56;5075781;28;20035;-76
2022/05/26 10:07:41;;;;;;;6.78;2.15;;;;;;;18.20;60.33;100666.03;5075742;28;20041;-79
2022/05/26 10:10:23;;;;;;;6.10;2.28;;;;;;;18.48;59.85;100664.25;5075998;28;20502;-76
2022/05/26 10:13:00;;;;;;;4.47;2.17;;;;;;;18.44;59.21;100663.13;5074999;28;20104;-78
2022/05/26 10:15:29;;;;;;;6.15;1.92;;;;;;;18.63;58.52;100667.25;5057058;28;20454;-77
2022/05/26 10:18:33;;;;;;;4.55;1.88;;;;;;;18.51;58.88;100663.75;5057588;28;20029;-77
2022/05/26 10:21:31;;;;;;;5.22;1.92;;;;;;;18.47;59.16;100657.97;5031648;28;20479;-76
2022/05/26 10:24:21;;;;;;;5.90;1.80;;;;;;;18.27;58.59;100663.94;5057870;28;20029;-77
2022/05/26 10:27:25;;;;;;;8.23;2.10;;;;;;;18.52;58.85;100665.41;5075902;28;20086;-77
2022/05/26 10:30:16;;;;;;;6.00;2.35;;;;;;;18.70;58.29;100662.41;4995740;28;20034;-78
2022/05/26 10:32:54;;;;;;;4.40;2.33;;;;;;;18.58;56.69;100662.50;5076013;28;20045;-78
2022/05/26 10:35:26;;;;;;;5.10;2.10;;;;;;;18.68;55.81;100670.03;5077789;28;20085;-78
2022/05/26 10:38:13;;;;;;;5.70;1.88;;;;;;;18.53;57.52;100670.59;5077467;28;20115;-78
2022/05/26 10:41:11;;;;;;;4.88;2.08;;;;;;;18.60;54.75;100670.47;5076532;28;20119;-79
2022/05/26 10:43:47;;;;;;;4.70;2.33;;;;;;;18.78;54.13;100675.63;5059027;28;20028;-79
2022/05/26 10:46:15;;;;;;;4.07;1.63;;;;;;;18.55;52.77;100676.66;5076659;28;20033;-78
2022/05/26 10:49:08;;;;;;;4.47;1.67;;;;;;;18.99;52.18;100674.78;5075987;28;20031;-77
2022/05/26 10:51:48;;;;;;;6.75;1.42;;;;;;;19.02;53.09;100687.94;5076455;28;20033;-78
2022/05/26 10:54:33;;;;;;;5.20;1.48;;;;;;;18.93;54.05;100683.19;5076035;28;20028;-78
2022/05/26 10:57:38;;;;;;;6.43;2.45;;;;;;;18.84;54.34;100690.97;5077066;28;20028;-78
2022/05/26 11:00:10;;;;;;;4.13;1.70;;;;;;;18.78;53.49;100692.00;5076376;28;20463;-78
2022/05/26 11:03:00;;;;;;;3.47;1.38;;;;;;;18.97;53.68;100685.16;5076817;28;20036;-78
2022/05/26 11:05:41;;;;;;;6.80;1.63;;;;;;;19.05;53.45;100683.88;5076968;28;20100;-79
2022/05/26 11:08:31;;;;;;;3.53;1.80;;;;;;;19.10;52.08;100683.13;5076473;28;20067;-79
2022/05/26 11:11:03;;;;;;;5.60;1.58;;;;;;;18.98;51.79;100689.56;5076263;28;20097;-79
2022/05/26 11:13:44;;;;;;;3.55;1.35;;;;;;;18.91;51.20;100672.53;5076739;28;20088;-78
2022/05/26 11:19:32;;;;;;;3.63;1.50;;;;;;;18.92;48.84;100676.91;5076969;28;20036;-78
2022/05/26 11:21:58;;;;;;;5.53;1.83;;;;;;;19.07;50.01;100684.47;5075048;28;20144;-78
2022/05/26 11:24:24;;;;;;;6.25;1.80;;;;;;;19.38;50.73;100674.69;5076706;28;20039;-78
2022/05/26 11:26:57;;;;;;;8.82;2.25;;;;;;;19.21;51.19;100684.88;5057914;28;20025;-80
2022/05/26 11:29:31;;;;;;;3.95;1.38;;;;;;;18.96;51.95;100686.25;5077175;28;20099;-79
2022/05/26 11:38:14;;;;;;;4.53;1.60;;;;;;;18.49;53.45;100698.63;5076632;28;20082;-77
2022/05/26 11:40:55;;;;;;;4.70;1.48;;;;;;;18.32;53.47;100709.56;5075580;28;20024;-79
2022/05/26 11:43:29;;;;;;;3.40;1.63;;;;;;;18.26;54.10;100702.41;5076219;28;20024;-79
2022/05/26 11:45:55;;;;;;;4.30;1.60;;;;;;;18.45;52.21;100692.06;5075805;28;20046;-79
2022/05/26 11:48:30;;;;;;;3.28;1.40;;;;;;;18.78;50.54;100696.66;5076621;28;20071;-79
2022/05/26 11:51:03;;;;;;;4.63;1.75;;;;;;;18.76;49.75;100682.41;5077378;28;20036;-79
2022/05/26 11:53:47;;;;;;;4.65;1.50;;;;;;;18.73;50.30;100678.28;5079132;28;20031;-78
2022/05/26 11:56:28;;;;;;;5.43;2.03;;;;;;;18.86;50.82;100677.91;5079779;28;20047;-79
2022/05/26 11:59:23;;;;;;;3.50;1.52;;;;;;;18.82;51.05;100675.94;5078093;28;20086;-79
2022/05/26 12:02:01;;;;;;;4.78;1.73;;;;;;;18.66;50.10;100685.81;5080197;28;20033;-78
2022/05/26 12:04:32;;;;;;;3.60;1.67;;;;;;;18.84;49.15;100682.78;5075420;28;20033;-78
2022/05/26 12:06:59;;;;;;;3.50;1.63;;;;;;;19.41;48.33;100676.91;5077377;28;20024;-79
2022/05/26 12:09:46;;;;;;;4.72;1.75;;;;;;;20.03;46.53;100669.09;5076429;28;20033;-78
2022/05/26 12:12:17;;;;;;;4.20;1.80;;;;;;;19.96;46.90;100673.09;5077007;28;20386;-78
2022/05/26 12:14:45;;;;;;;3.03;1.58;;;;;;;19.79;47.84;100669.69;5079229;28;20447;-78
2022/05/26 12:17:44;;;;;;;3.47;1.55;;;;;;;19.67;48.58;100672.59;5081654;28;20036;-78
2022/05/26 12:20:10;;;;;;;4.85;1.67;;;;;;;19.65;49.19;100667.38;5078580;28;20024;-78
2022/05/26 12:22:47;;;;;;;4.20;1.70;;;;;;;19.57;49.93;100665.09;5078881;28;20059;-78
2022/05/26 12:25:31;;;;;;;3.53;1.70;;;;;;;19.27;50.48;100657.38;5061401;28;20290;-78
2022/05/26 12:28:10;;;;;;;4.07;1.65;;;;;;;19.64;50.18;100657.53;5079106;28;20036;-79
2022/05/26 12:31:00;;;;;;;5.32;1.67;;;;;;;19.71;50.13;100651.81;5077342;28;20451;-77
2022/05/26 12:33:52;;;;;;;3.53;1.63;;;;;;;19.33;50.64;100650.06;5064466;28;20048;-79
2022/05/26 12:36:35;;;;;;;3.63;1.50;;;;;;;19.90;49.18;100644.88;5079522;28;20024;-79
2022/05/26 12:39:23;;;;;;;5.20;1.50;;;;;;;20.57;48.02;100640.75;5079725;28;20033;-79
2022/05/26 12:41:56;;;;;;;5.10;1.65;;;;;;;20.88;46.36;100645.25;5079763;28;20024;-79
2022/05/26 12:45:04;;;;;;;3.60;1.48;;;;;;;21.37;44.60;100640.25;5080868;28;20026;-80